createdAt,value
2023-03-22T00:01:23.804Z,8.51
2023-03-22T00:03:52.474Z,8.49
2023-03-22T00:06:20.459Z,8.47
2023-03-22T00:08:51.509Z,8.50
2023-03-22T00:11:21.877Z,8.55
2023-03-22T00:13:52.529Z,8.64
2023-03-22T00:16:21.769Z,8.65
2023-03-22T00:18:49.242Z,8.64
2023-03-22T00:21:17.286Z,8.66
2023-03-22T00:23:44.902Z,8.72
2023-03-22T00:26:14.066Z,8.75
2023-03-22T00:28:42.460Z,8.73
2023-03-22T00:31:10.980Z,8.74
2023-03-22T00:33:38.448Z,8.68
2023-03-22T00:36:09.727Z,8.75
2023-03-22T00:38:42.896Z,8.81
2023-03-22T00:41:23.993Z,8.86
2023-03-22T00:43:52.046Z,8.84
2023-03-22T00:46:21.581Z,8.81
2023-03-22T00:48:49.408Z,8.77
2023-03-22T00:51:18.169Z,8.63
2023-03-22T00:53:45.479Z,8.72
2023-03-22T00:56:14.414Z,8.81
2023-03-22T00:58:52.779Z,8.56
2023-03-22T01:01:20.742Z,8.52
2023-03-22T01:03:50.783Z,8.49
2023-03-22T01:06:18.705Z,8.49
2023-03-22T01:08:46.182Z,8.34
2023-03-22T01:11:13.419Z,8.31
2023-03-22T01:13:41.975Z,8.20
2023-03-22T01:16:10.671Z,8.09
2023-03-22T01:18:38.124Z,8.15
2023-03-22T01:21:06.391Z,8.07
2023-03-22T01:23:34.007Z,8.05
2023-03-22T01:26:01.695Z,7.99
2023-03-22T01:28:29.930Z,8.00
2023-03-22T01:31:02.994Z,8.00
2023-03-22T01:33:30.989Z,8.06
2023-03-22T01:35:58.788Z,8.35
2023-03-22T01:38:26.596Z,8.32
2023-03-22T01:40:57.792Z,8.26
2023-03-22T01:43:26.231Z,8.03
2023-03-22T01:45:54.952Z,7.89
2023-03-22T01:48:46.156Z,7.88
2023-03-22T01:51:25.360Z,7.83
2023-03-22T01:54:48.164Z,7.67
2023-03-22T01:57:45.689Z,7.53
2023-03-22T02:00:22.516Z,7.34
2023-03-22T02:03:15.607Z,7.47
2023-03-22T02:05:47.832Z,7.48
2023-03-22T02:08:16.254Z,7.48
2023-03-22T02:10:58.019Z,7.48
2023-03-22T02:14:09.227Z,7.35
2023-03-22T02:17:18.683Z,7.37
2023-03-22T02:20:24.686Z,7.41
2023-03-22T02:23:01.476Z,7.55
2023-03-22T02:25:54.932Z,7.55
2023-03-22T02:28:43.675Z,7.48
2023-03-22T02:31:48.024Z,7.50
2023-03-22T02:35:03.372Z,7.47
2023-03-22T02:37:58.410Z,7.40
2023-03-22T02:40:40.893Z,7.30
2023-03-22T02:43:38.695Z,7.16
2023-03-22T02:46:46.568Z,7.01
2023-03-22T02:49:35.976Z,7.03
2023-03-22T02:52:12.840Z,7.06
2023-03-22T02:54:53.680Z,7.33
2023-03-22T02:57:28.807Z,7.34
2023-03-22T02:59:58.308Z,7.44
2023-03-22T03:02:28.197Z,7.46
2023-03-22T03:04:57.113Z,7.35
2023-03-22T03:07:30.625Z,7.12
2023-03-22T03:09:58.702Z,7.13
2023-03-22T03:12:28.170Z,7.20
2023-03-22T03:14:57.505Z,7.30
2023-03-22T03:17:47.102Z,7.33
2023-03-22T03:20:30.142Z,7.35
2023-03-22T03:23:57.872Z,7.60
2023-03-22T03:26:46.311Z,7.66
2023-03-22T03:29:22.634Z,7.70
2023-03-22T03:31:52.590Z,7.81
2023-03-22T03:34:38.534Z,7.84
2023-03-22T03:37:14.610Z,7.87
2023-03-22T03:40:09.998Z,7.91
2023-03-22T03:42:50.331Z,8.08
2023-03-22T03:45:19.482Z,8.16
2023-03-22T03:47:55.459Z,8.11
2023-03-22T03:50:25.313Z,8.33
2023-03-22T03:52:54.463Z,8.38
2023-03-22T03:55:23.761Z,8.38
2023-03-22T03:57:51.079Z,8.37
2023-03-22T04:00:19.264Z,8.36
2023-03-22T04:03:14.103Z,8.53
2023-03-22T04:06:09.020Z,8.53
2023-03-22T04:08:38.951Z,8.52
2023-03-22T04:11:07.326Z,8.55
2023-03-22T04:13:35.308Z,8.57
2023-03-22T04:16:07.305Z,8.73
2023-03-22T04:18:36.970Z,8.68
2023-03-22T04:21:07.722Z,8.60
2023-03-22T04:23:46.733Z,8.50
2023-03-22T04:26:14.148Z,8.45
2023-03-22T04:29:03.190Z,8.34
2023-03-22T04:31:33.980Z,8.32
2023-03-22T04:34:08.513Z,8.37
2023-03-22T04:36:50.772Z,8.51
2023-03-22T04:39:24.703Z,8.54
2023-03-22T04:41:59.641Z,8.60
2023-03-22T04:44:27.602Z,8.72
2023-03-22T04:46:55.876Z,8.65
2023-03-22T04:49:23.292Z,8.86
2023-03-22T04:51:50.652Z,8.93
2023-03-22T04:54:24.290Z,8.98
2023-03-22T04:56:51.705Z,8.83
2023-03-22T04:59:21.965Z,9.02
2023-03-22T05:01:51.672Z,9.15
2023-03-22T05:04:23.059Z,9.10
2023-03-22T05:06:56.655Z,9.07
2023-03-22T05:09:31.599Z,9.18
2023-03-22T05:11:59.023Z,9.23
2023-03-22T05:14:46.454Z,9.30
2023-03-22T05:17:16.748Z,9.31
2023-03-22T05:19:44.875Z,9.60
2023-03-22T05:22:13.347Z,9.69
2023-03-22T05:24:49.189Z,9.80
2023-03-22T05:27:31.220Z,9.81
2023-03-22T05:30:10.608Z,9.79
2023-03-22T05:32:47.621Z,9.81
2023-03-22T05:35:14.993Z,9.86
2023-03-22T05:37:47.314Z,9.79
2023-03-22T05:40:17.004Z,9.90
2023-03-22T05:42:45.614Z,9.94
2023-03-22T05:45:21.474Z,9.99
2023-03-22T05:47:57.441Z,10.12
2023-03-22T05:50:25.999Z,10.12
2023-03-22T05:52:53.507Z,10.12
2023-03-22T05:55:39.338Z,10.03
2023-03-22T05:58:07.689Z,10.13
2023-03-22T06:00:38.878Z,10.04
2023-03-22T06:03:29.106Z,10.02
2023-03-22T06:06:10.793Z,10.10
2023-03-22T06:08:47.892Z,10.12
2023-03-22T06:11:15.526Z,10.26
2023-03-22T06:13:42.759Z,10.36
2023-03-22T06:16:11.482Z,10.56
2023-03-22T06:18:39.162Z,10.73
2023-03-22T06:21:10.827Z,10.88
2023-03-22T06:23:38.441Z,10.90
2023-03-22T06:26:06.661Z,10.90
2023-03-22T06:28:35.996Z,10.77
2023-03-22T06:31:11.219Z,11.04
2023-03-22T06:33:55.933Z,11.30
2023-03-22T06:36:32.405Z,11.20
2023-03-22T06:39:05.421Z,11.02
2023-03-22T06:41:33.269Z,11.25
2023-03-22T06:44:01.354Z,11.52
2023-03-22T06:46:48.993Z,11.73
2023-03-22T06:49:36.088Z,11.65
2023-03-22T06:52:04.213Z,11.53
2023-03-22T06:54:32.151Z,11.64
2023-03-22T06:56:59.681Z,11.75
2023-03-22T06:59:27.769Z,11.72
2023-03-22T07:01:55.134Z,11.69
2023-03-22T07:04:22.575Z,11.31
2023-03-22T07:06:50.839Z,11.37
2023-03-22T07:09:18.694Z,11.65
2023-03-22T07:11:48.631Z,11.93
2023-03-22T07:14:16.410Z,12.08
2023-03-22T07:16:57.031Z,12.10
2023-03-22T07:19:24.860Z,12.09
2023-03-22T07:21:52.249Z,12.30
2023-03-22T07:24:19.439Z,12.35
2023-03-22T07:26:47.064Z,12.27
2023-03-22T07:29:19.383Z,12.46
2023-03-22T07:31:47.054Z,12.54
2023-03-22T07:34:23.854Z,12.70
2023-03-22T07:37:03.106Z,12.55
2023-03-22T07:39:31.167Z,12.69
2023-03-22T07:41:58.880Z,13.02
2023-03-22T07:44:27.078Z,13.47
2023-03-22T07:47:13.152Z,13.65
2023-03-22T07:49:46.563Z,13.88
2023-03-22T07:52:18.186Z,14.00
2023-03-22T07:54:45.543Z,14.16
2023-03-22T07:57:13.940Z,13.85
2023-03-22T07:59:47.277Z,14.51
2023-03-22T08:02:16.138Z,14.73
2023-03-22T08:04:55.746Z,15.27
2023-03-22T08:07:37.849Z,16.29
2023-03-22T08:10:06.498Z,17.30
2023-03-22T08:12:35.482Z,17.47
2023-03-22T08:15:15.702Z,17.84
2023-03-22T08:17:43.522Z,17.40
2023-03-22T08:20:18.482Z,17.14
2023-03-22T08:22:51.294Z,17.03
2023-03-22T08:25:44.857Z,16.93
2023-03-22T08:28:14.560Z,16.42
2023-03-22T08:30:45.382Z,15.62
2023-03-22T08:33:14.083Z,15.47
2023-03-22T08:35:43.151Z,15.34
2023-03-22T08:38:10.432Z,14.88
2023-03-22T08:40:48.046Z,14.83
2023-03-22T08:43:19.434Z,15.18
2023-03-22T08:45:47.723Z,15.08
2023-03-22T08:48:17.185Z,15.10
2023-03-22T08:51:01.193Z,15.06
2023-03-22T08:53:37.483Z,14.89
2023-03-22T08:56:27.541Z,14.81
2023-03-22T08:59:10.230Z,14.78
2023-03-22T09:01:47.278Z,14.74
2023-03-22T09:04:14.875Z,14.77
2023-03-22T09:06:45.337Z,14.68
2023-03-22T09:09:13.141Z,14.74
2023-03-22T09:11:42.945Z,14.57
2023-03-22T09:14:10.871Z,14.41
2023-03-22T09:16:38.549Z,14.43
2023-03-22T09:19:06.849Z,14.72
2023-03-22T09:21:34.730Z,14.55
2023-03-22T09:24:14.495Z,14.38
2023-03-22T09:26:49.262Z,14.49
2023-03-22T09:29:19.583Z,14.70
2023-03-22T09:31:49.015Z,14.90
2023-03-22T09:34:19.353Z,15.07
2023-03-22T09:36:47.563Z,15.19
2023-03-22T09:39:17.905Z,15.54
2023-03-22T09:41:56.197Z,15.31
2023-03-22T09:44:32.350Z,15.28
2023-03-22T09:47:02.286Z,15.46
2023-03-22T09:49:52.861Z,15.68
2023-03-22T09:52:20.925Z,15.63
2023-03-22T09:54:48.283Z,15.50
2023-03-22T09:57:37.314Z,15.42
2023-03-22T10:00:22.293Z,15.45
2023-03-22T10:03:17.214Z,15.88
2023-03-22T10:06:03.043Z,16.23
2023-03-22T10:08:47.061Z,16.40
2023-03-22T10:12:05.247Z,16.82
2023-03-22T10:14:46.000Z,16.88
2023-03-22T10:17:19.117Z,16.88
2023-03-22T10:20:06.177Z,16.86
2023-03-22T10:22:42.786Z,17.31
2023-03-22T10:25:15.725Z,17.41
2023-03-22T10:27:44.022Z,17.27
2023-03-22T10:30:27.432Z,18.04
2023-03-22T10:33:05.098Z,18.53
2023-03-22T10:35:33.063Z,18.93
2023-03-22T10:38:05.163Z,19.93
2023-03-22T10:40:36.375Z,20.43
2023-03-22T10:43:20.083Z,19.83
2023-03-22T10:45:48.841Z,20.47
2023-03-22T10:48:35.892Z,22.78
2023-03-22T10:51:04.447Z,22.84
2023-03-22T10:53:49.255Z,22.27
2023-03-22T10:56:20.274Z,21.95
2023-03-22T10:58:51.922Z,21.95
2023-03-22T11:01:40.280Z,21.38
2023-03-22T11:04:13.048Z,23.19
2023-03-22T11:06:56.070Z,26.13
2023-03-22T11:09:24.761Z,27.24
2023-03-22T11:11:59.093Z,26.60
2023-03-22T11:14:33.526Z,26.07
2023-03-22T11:17:14.750Z,25.40
2023-03-22T11:19:53.915Z,24.01
2023-03-22T11:22:38.631Z,22.96
2023-03-22T11:25:30.883Z,23.66
2023-03-22T11:28:09.579Z,26.10
2023-03-22T11:30:37.984Z,27.56
2023-03-22T11:33:08.401Z,28.49
2023-03-22T11:35:39.499Z,28.70
2023-03-22T11:38:07.688Z,28.60
2023-03-22T11:40:36.969Z,28.28
2023-03-22T11:43:23.470Z,27.83
2023-03-22T11:45:57.126Z,28.44
2023-03-22T11:48:33.374Z,29.52
2023-03-22T11:51:07.138Z,28.79
2023-03-22T11:53:39.872Z,27.61
2023-03-22T11:56:12.608Z,27.91
2023-03-22T11:58:42.572Z,27.92
2023-03-22T12:01:26.223Z,28.04
2023-03-22T12:03:57.437Z,27.65
2023-03-22T12:06:33.648Z,27.37
2023-03-22T12:09:43.183Z,26.29
2023-03-22T12:12:19.159Z,24.72
2023-03-22T12:15:08.355Z,24.21
2023-03-22T12:17:45.258Z,24.61
2023-03-22T12:20:38.417Z,23.99
2023-03-22T12:23:20.213Z,23.52
2023-03-22T12:26:18.376Z,24.42
2023-03-22T12:29:05.408Z,25.00
2023-03-22T12:31:48.390Z,24.43
2023-03-22T12:34:25.991Z,23.38
2023-03-22T12:36:57.015Z,23.16
2023-03-22T12:39:39.144Z,22.71
2023-03-22T12:42:29.313Z,21.99
2023-03-22T12:45:11.207Z,22.45
2023-03-22T12:47:55.376Z,21.99
2023-03-22T12:50:36.126Z,20.65
2023-03-22T12:53:04.659Z,20.66
2023-03-22T12:55:37.059Z,20.70
2023-03-22T12:58:10.278Z,20.69
2023-03-22T13:00:54.165Z,21.32
2023-03-22T13:03:37.826Z,20.40
2023-03-22T13:06:28.086Z,20.31
2023-03-22T13:09:41.501Z,20.18
2023-03-22T13:12:17.516Z,20.44
2023-03-22T13:14:53.210Z,20.28
2023-03-22T13:17:23.688Z,19.67
2023-03-22T13:20:13.675Z,19.69
2023-03-22T13:22:43.721Z,20.04
2023-03-22T13:25:13.976Z,20.01
2023-03-22T13:28:18.742Z,19.81
2023-03-22T13:30:55.013Z,20.00
2023-03-22T13:33:32.164Z,19.78
2023-03-22T13:36:25.085Z,19.51
2023-03-22T13:39:07.994Z,18.77
2023-03-22T13:41:36.116Z,19.06
2023-03-22T13:44:26.710Z,19.12
2023-03-22T13:47:01.338Z,19.00
2023-03-22T13:49:56.531Z,18.89
2023-03-22T13:52:38.734Z,18.61
2023-03-22T13:55:41.614Z,18.51
2023-03-22T13:58:52.388Z,18.54
2023-03-22T14:01:48.009Z,18.64
2023-03-22T14:04:22.793Z,18.66
2023-03-22T14:06:55.151Z,18.84
2023-03-22T14:09:44.731Z,19.06
2023-03-22T14:13:03.956Z,18.92
2023-03-22T14:15:38.177Z,18.93
2023-03-22T14:18:37.258Z,18.48
2023-03-22T14:21:12.540Z,18.66
